Time;durP1;ratioP1;P1;durP2;ratioP2;P2;SDS_P1;SDS_P2;PMS_P1;PMS_P2;Temp;Humidity;BMP_temperature;BMP_pressure;BME280_temperature;BME280_humidity;BME280_pressure;Samples;Min_cycle;Max_cycle;Signal;HPM_P1;HPM_P2
2022/08/30 00:05:48;;;;;;;;;;;;;;;23.38;52.14;95936.44;10248788;28;2167;-54
2022/08/30 00:10:50;;;;;;;;;;;;;;;23.37;52.21;95934.03;10250344;28;2013;-51
2022/08/30 00:15:50;;;;;;;;;;;;;;;23.36;52.14;95932.50;10245835;28;2002;-51
2022/08/30 00:20:50;;;;;;;;;;;;;;;23.35;52.08;95930.91;10248594;28;2166;-54
2022/08/30 00:25:51;;;;;;;;;;;;;;;;;;10244766;28;2087;-52
2022/08/30 00:30:51;;;;;;;;;;;;;;;23.32;52.24;95929.63;10245914;28;1923;-49
2022/08/30 00:35:51;;;;;;;;;;;;;;;23.32;52.27;95923.56;10244762;28;2002;-52
2022/08/30 00:40:52;;;;;;;;;;;;;;;23.33;52.18;95922.47;10243897;28;1990;-52
2022/08/30 00:45:52;;;;;;;;;;;;;;;23.34;52.28;95921.41;10243886;28;2230;-51
2022/08/30 00:50:57;;;;;;;;;;;;;;;23.32;52.08;95915.63;10246343;28;2061;-50
2022/08/30 00:55:58;;;;;;;;;;;;;;;23.31;51.89;95911.34;10257417;28;2017;-51
2022/08/30 01:00:58;;;;;;;;;;;;;;;23.30;52.08;95918.53;10246007;28;2080;-48
2022/08/30 01:05:58;;;;;;;;;;;;;;;23.28;51.85;95922.53;10258536;28;2040;-52
2022/08/30 01:10:59;;;;;;;;;;;;;;;23.26;51.67;95908.81;10258276;28;2014;-51
2022/08/30 01:15:59;;;;;;;;;;;;;;;23.26;52.00;95914.09;10258778;28;2112;-51
2022/08/30 01:21:07;;;;;;;;;;;;;;;23.26;52.00;95912.25;10245055;28;2073;-50
2022/08/30 01:26:11;;;;;;;;;;;;;;;23.23;51.98;95914.66;10260875;28;1949;-50
2022/08/30 01:31:12;;;;;;;;;;;;;;;23.21;51.82;95909.66;10257142;28;2101;-51
2022/08/30 01:36:13;;;;;;;;;;;;;;;23.21;51.85;95912.28;10242364;28;2191;-52
2022/08/30 01:41:13;;;;;;;;;;;;;;;23.21;51.89;95911.50;10244353;28;2022;-52
2022/08/30 01:46:14;;;;;;;;;;;;;;;23.20;51.56;95915.25;10253697;28;1872;-52
2022/08/30 01:51:14;;;;;;;;;;;;;;;23.17;51.69;95913.94;10263608;28;2038;-50
2022/08/30 01:56:15;;;;;;;;;;;;;;;23.16;51.59;95909.72;10252599;28;2184;-53
2022/08/30 02:01:15;;;;;;;;;;;;;;;23.16;51.80;95915.00;10251094;28;2071;-49
2022/08/30 02:06:17;;;;;;;;;;;;;;;23.16;51.65;95916.88;10252070;28;2158;-51
2022/08/30 02:11:17;;;;;;;;;;;;;;;23.14;51.44;95909.22;10243274;28;1843;-50
2022/08/30 02:16:18;;;;;;;;;;;;;;;23.13;51.42;95915.59;10245636;28;2027;-49
2022/08/30 02:21:18;;;;;;;;;;;;;;;23.14;51.37;95919.03;10247116;28;2037;-48
2022/08/30 02:26:19;;;;;;;;;;;;;;;23.13;51.48;95917.44;10246736;28;2113;-50
2022/08/30 02:31:19;;;;;;;;;;;;;;;23.11;51.57;95912.44;10248009;28;2030;-53
2022/08/30 02:36:19;;;;;;;;;;;;;;;23.10;51.65;95908.22;10250418;28;2122;-48
2022/08/30 02:41:20;;;;;;;;;;;;;;;23.09;51.56;95906.66;10248387;28;2170;-48
2022/08/30 02:46:20;;;;;;;;;;;;;;;23.08;51.49;95904.31;10252716;28;2034;-50
2022/08/30 02:51:20;;;;;;;;;;;;;;;23.07;51.44;95919.38;10249312;28;2054;-51
2022/08/30 02:56:20;;;;;;;;;;;;;;;23.06;51.53;95919.66;10250744;28;1906;-51
2022/08/30 03:01:21;;;;;;;;;;;;;;;23.06;51.53;95923.06;10250977;28;1970;-52
2022/08/30 03:06:21;;;;;;;;;;;;;;;23.05;51.58;95920.72;10251457;28;2087;-49
2022/08/30 03:11:27;;;;;;;;;;;;;;;23.02;51.47;95927.34;10251015;28;2041;-49
2022/08/30 03:16:27;;;;;;;;;;;;;;;23.01;51.25;95930.28;10257510;28;2017;-50
2022/08/30 03:21:27;;;;;;;;;;;;;;;22.99;51.25;95924.50;10248623;28;2029;-50
2022/08/30 03:26:28;;;;;;;;;;;;;;;22.97;51.21;95931.94;10247628;28;2052;-53
2022/08/30 03:31:28;;;;;;;;;;;;;;;22.97;51.29;95924.81;10251503;28;2047;-50
2022/08/30 03:36:28;;;;;;;;;;;;;;;22.97;51.22;95929.28;10252437;28;2052;-50
2022/08/30 03:41:29;;;;;;;;;;;;;;;22.97;51.35;95932.72;10250014;28;2176;-53
2022/08/30 03:46:29;;;;;;;;;;;;;;;22.96;51.43;95930.34;10249019;28;2094;-49
2022/08/30 03:51:29;;;;;;;;;;;;;;;22.94;51.32;95927.19;10248991;28;2009;-51
2022/08/30 03:56:32;;;;;;;;;;;;;;;22.95;51.24;95920.84;10248467;28;1977;-52
2022/08/30 04:01:33;;;;;;;;;;;;;;;22.96;51.13;95922.41;10246411;28;2039;-51
2022/08/30 04:06:33;;;;;;;;;;;;;;;22.96;51.42;95927.72;10249380;28;2061;-50
2022/08/30 04:11:33;;;;;;;;;;;;;;;22.93;51.05;95930.94;10246198;28;2150;-52
2022/08/30 04:16:34;;;;;;;;;;;;;;;22.90;51.27;95947.34;10245617;28;2010;-53
2022/08/30 04:21:35;;;;;;;;;;;;;;;22.88;50.93;95942.34;10250926;28;2026;-52
2022/08/30 04:26:35;;;;;;;;;;;;;;;22.85;50.89;95942.94;10250760;28;2070;-50
2022/08/30 04:31:35;;;;;;;;;;;;;;;22.86;51.14;95951.63;10246476;28;1942;-50
2022/08/30 04:36:36;;;;;;;;;;;;;;;22.85;51.08;95953.50;10249036;28;2014;-50
2022/08/30 04:41:38;;;;;;;;;;;;;;;22.89;51.15;95953.72;10241943;28;2095;-50
2022/08/30 04:46:39;;;;;;;;;;;;;;;22.93;50.99;95952.88;10241673;28;2043;-49
2022/08/30 04:51:39;;;;;;;;;;;;;;;22.94;50.75;95958.91;10248400;28;2040;-50
2022/08/30 04:56:40;;;;;;;;;;;;;;;22.95;50.97;95963.16;10245071;28;2025;-51
2022/08/30 05:01:40;;;;;;;;;;;;;;;22.98;51.06;95971.31;10245573;28;1970;-52
2022/08/30 05:06:40;;;;;;;;;;;;;;;22.99;51.04;95974.75;10244998;28;2132;-50
2022/08/30 05:11:42;;;;;;;;;;;;;;;22.99;50.99;95990.59;10242884;28;2101;-53
2022/08/30 05:16:42;;;;;;;;;;;;;;;22.98;51.00;95994.31;10245309;28;1839;-49
2022/08/30 05:21:42;;;;;;;;;;;;;;;23.01;51.06;95999.03;10244643;28;2049;-51
2022/08/30 05:26:42;;;;;;;;;;;;;;;22.98;51.52;95992.44;10245434;28;2005;-53
2022/08/30 05:31:45;;;;;;;;;;;;;;;22.99;51.22;95996.69;10246675;28;2103;-52
2022/08/30 05:36:47;;;;;;;;;;;;;;;23.00;51.34;95992.19;10243054;28;1993;-48
2022/08/30 05:41:47;;;;;;;;;;;;;;;23.00;51.35;95984.25;10241139;28;1999;-51
2022/08/30 05:46:49;;;;;;;;;;;;;;;23.00;51.64;95981.63;10243332;28;2013;-53
2022/08/30 05:51:51;;;;;;;;;;;;;;;22.99;51.55;95980.81;10258171;28;2070;-49
2022/08/30 05:56:51;;;;;;;;;;;;;;;23.08;51.50;95986.28;10246634;28;2106;-50
2022/08/30 06:01:52;;;;;;;;;;;;;;;23.14;51.51;95985.13;10244762;28;2070;-50
2022/08/30 06:06:52;;;;;;;;;;;;;;;23.16;51.59;95983.75;10270145;28;2145;-50
2022/08/30 06:11:52;;;;;;;;;;;;;;;23.20;51.39;95984.00;10257434;28;1990;-49
2022/08/30 06:16:52;;;;;;;;;;;;;;;23.22;51.36;95989.78;10256321;28;1930;-51
2022/08/30 06:21:53;;;;;;;;;;;;;;;23.24;51.19;95993.72;10257018;28;2072;-52
2022/08/30 06:26:53;;;;;;;;;;;;;;;23.25;51.51;95990.00;10257062;28;1894;-49
2022/08/30 06:31:55;;;;;;;;;;;;;;;23.26;51.32;95990.78;10259234;28;1838;-51
2022/08/30 06:36:55;;;;;;;;;;;;;;;23.28;51.42;95989.44;10259861;28;1966;-51
2022/08/30 06:41:55;;;;;;;;;;;;;;;23.28;51.35;95989.44;10256759;28;2422;-49
2022/08/30 06:46:55;;;;;;;;;;;;;;;23.31;51.24;95988.84;10257093;28;2196;-51
2022/08/30 06:51:56;;;;;;;;;;;;;;;23.33;51.34;95993.88;10253574;28;2066;-48
2022/08/30 06:56:56;;;;;;;;;;;;;;;23.35;51.02;95997.03;10257928;28;2006;-49
2022/08/30 07:01:56;;;;;;;;;;;;;;;23.37;51.16;96002.81;10255255;28;2042;-50
2022/08/30 07:06:57;;;;;;;;;;;;;;;23.38;51.08;95993.84;10255605;28;2057;-49
2022/08/30 07:12:00;;;;;;;;;;;;;;;23.39;51.06;95995.38;10252188;28;2212;-48
2022/08/30 07:17:00;;;;;;;;;;;;;;;23.39;50.90;95990.91;10253718;28;1966;-49
2022/08/30 07:22:00;;;;;;;;;;;;;;;23.40;51.07;95994.34;10248789;28;2033;-52
2022/08/30 07:27:01;;;;;;;;;;;;;;;23.41;50.91;96001.22;10251835;28;2049;-52
2022/08/30 07:32:01;;;;;;;;;;;;;;;23.44;51.03;95990.03;10249126;28;2130;-50
2022/08/30 07:37:01;;;;;;;;;;;;;;;23.45;50.97;95986.34;10247046;28;1888;-49
2022/08/30 07:42:02;;;;;;;;;;;;;;;23.46;51.19;95985.25;10247667;28;1942;-51
2022/08/30 07:47:02;;;;;;;;;;;;;;;23.47;51.13;95989.50;10249652;28;2069;-49
2022/08/30 07:52:03;;;;;;;;;;;;;;;23.47;50.94;95984.19;10260979;28;2091;-50
2022/08/30 07:57:03;;;;;;;;;;;;;;;23.49;50.98;95989.19;10249757;28;2021;-50
2022/08/30 08:02:03;;;;;;;;;;;;;;;23.48;51.12;95991.03;10259288;28;1973;-47
2022/08/30 08:07:04;;;;;;;;;;;;;;;23.48;50.96;95985.75;10251141;28;2053;-50
2022/08/30 08:12:10;;;;;;;;;;;;;;;23.52;50.86;95988.59;10243745;28;2137;-52
2022/08/30 08:17:10;;;;;;;;;;;;;;;23.51;51.13;95993.13;10230637;28;2092;-48
2022/08/30 08:22:10;;;;;;;;;;;;;;;23.52;51.07;95986.75;10244683;28;2200;-47
2022/08/30 08:27:12;;;;;;;;;;;;;;;23.54;51.02;95987.25;10247467;28;1836;-47
2022/08/30 08:32:12;;;;;;;;;;;;;;;23.54;50.89;95989.91;10243752;28;2097;-53
2022/08/30 08:37:12;;;;;;;;;;;;;;;23.55;51.05;95988.84;10247401;28;2041;-51
2022/08/30 08:42:20;;;;;;;;;;;;;;;23.56;51.01;95993.03;10246449;28;2309;-50
2022/08/30 08:47:27;;;;;;;;;;;;;;;23.58;50.96;96003.34;10259077;28;2321;-48
2022/08/30 08:58:14;;;;;;;;;;;;;;;23.61;50.87;95997.47;10245721;28;2415;-50
2022/08/30 09:03:15;;;;;;;;;;;;;;;23.61;51.03;95998.28;10263590;28;2195;-50
2022/08/30 09:08:16;;;;;;;;;;;;;;;23.61;50.91;95987.69;10257269;28;2393;-50
2022/08/30 09:13:17;;;;;;;;;;;;;;;23.63;51.27;95985.53;10256612;28;2341;-49
2022/08/30 09:18:17;;;;;;;;;;;;;;;23.64;51.08;95981.81;10247177;28;2387;-47
2022/08/30 09:23:17;;;;;;;;;;;;;;;23.65;51.17;95983.41;10245519;28;2354;-48
2022/08/30 09:28:21;;;;;;;;;;;;;;;23.66;50.84;95978.91;10247623;28;2338;-49
2022/08/30 09:33:22;;;;;;;;;;;;;;;23.67;51.14;95975.97;10238448;28;2089;-47
2022/08/30 09:38:26;;;;;;;;;;;;;;;23.69;51.14;95980.94;10248031;28;2325;-50
2022/08/30 09:43:31;;;;;;;;;;;;;;;23.70;51.29;95969.31;10237891;28;2323;-50
2022/08/30 09:48:32;;;;;;;;;;;;;;;23.71;51.07;95966.38;10262453;28;2046;-50
2022/08/30 09:53:34;;;;;;;;;;;;;;;23.71;50.91;95958.44;10238338;28;2373;-53
2022/08/30 09:58:47;;;;;;;;;;;;;;;23.72;50.89;95959.22;10258090;28;2320;-50
2022/08/30 10:03:55;;;;;;;;;;;;;;;23.74;51.16;95946.47;10256233;28;2459;-52
2022/08/30 10:08:55;;;;;;;;;;;;;;;23.74;51.10;95946.47;10245287;28;2270;-52
2022/08/30 10:14:14;;;;;;;;;;;;;;;23.76;51.26;95941.69;10239330;28;2318;-51
2022/08/30 10:19:35;;;;;;;;;;;;;;;23.77;51.24;95944.03;10245118;28;2369;-50
2022/08/30 10:24:39;;;;;;;;;;;;;;;23.77;51.13;95930.81;10214641;28;2387;-52
2022/08/30 10:29:42;;;;;;;;;;;;;;;23.78;51.25;95924.41;10246999;28;2351;-51
2022/08/30 10:34:47;;;;;;;;;;;;;;;23.79;51.01;95925.22;10259430;28;2031;-51
2022/08/30 10:39:52;;;;;;;;;;;;;;;23.80;51.49;95919.63;10259162;28;2321;-48
2022/08/30 10:44:55;;;;;;;;;;;;;;;23.81;51.19;95913.25;10246012;28;2110;-50
2022/08/30 10:50:03;;;;;;;;;;;;;;;23.82;51.45;95906.13;10244934;28;2071;-50
2022/08/30 10:55:03;;;;;;;;;;;;;;;23.83;51.45;95905.81;10256742;28;2283;-49
2022/08/30 11:00:09;;;;;;;;;;;;;;;23.86;51.50;95905.25;10253523;28;2427;-50
2022/08/30 11:05:28;;;;;;;;;;;;;;;23.86;51.28;95902.59;10264798;28;1991;-52
2022/08/30 11:10:48;;;;;;;;;;;;;;;23.87;51.23;95904.16;10250724;28;2348;-49
2022/08/30 11:16:00;;;;;;;;;;;;;;;23.88;51.42;95908.38;10249131;28;2377;-52
2022/08/30 11:21:21;;;;;;;;;;;;;;;23.89;51.22;95902.00;10265904;28;2290;-51
2022/08/30 11:26:40;;;;;;;;;;;;;;;23.89;51.50;95893.28;10236383;28;2369;-53
2022/08/30 11:31:41;;;;;;;;;;;;;;;23.90;51.27;95885.06;10246825;28;2288;-50
2022/08/30 11:36:58;;;;;;;;;;;;;;;23.90;51.35;95881.63;10249660;28;1991;-49
2022/08/30 11:42:12;;;;;;;;;;;;;;;23.91;51.20;95883.16;10244975;28;1977;-49
2022/08/30 11:47:32;;;;;;;;;;;;;;;23.93;51.31;95892.41;10264749;28;2372;-51
2022/08/30 11:52:58;;;;;;;;;;;;;;;23.94;51.32;95888.69;10247420;28;2695;-51
2022/08/30 11:58:08;;;;;;;;;;;;;;;23.94;51.35;95891.34;10246426;28;2071;-50
2022/08/30 12:03:14;;;;;;;;;;;;;;;23.96;51.29;95894.47;10263506;28;2083;-51
2022/08/30 12:08:26;;;;;;;;;;;;;;;23.97;51.37;95887.31;10246204;28;2464;-48
2022/08/30 12:13:32;;;;;;;;;;;;;;;23.96;51.43;95889.19;10244585;28;2282;-48
2022/08/30 12:18:45;;;;;;;;;;;;;;;23.97;51.46;95889.94;10255518;28;2314;-48
2022/08/30 12:24:07;;;;;;;;;;;;;;;23.99;51.35;95888.59;10261049;28;2341;-51
2022/08/30 12:29:07;;;;;;;;;;;;;;;24.00;51.27;95879.59;10250671;28;2044;-53
2022/08/30 12:34:08;;;;;;;;;;;;;;;24.01;51.54;95875.84;10245386;28;2366;-49
2022/08/30 12:39:13;;;;;;;;;;;;;;;24.03;51.33;95876.38;10249411;28;2349;-47
2022/08/30 12:44:14;;;;;;;;;;;;;;;24.03;51.46;95878.19;10248445;28;2373;-49
2022/08/30 12:49:15;;;;;;;;;;;;;;;24.05;51.45;95870.81;10245306;28;2329;-51
2022/08/30 12:54:17;;;;;;;;;;;;;;;24.06;51.40;95872.34;10246519;28;2286;-49
2022/08/30 12:59:39;;;;;;;;;;;;;;;24.07;51.58;95869.41;10249474;28;2302;-52
2022/08/30 13:04:41;;;;;;;;;;;;;;;24.07;51.62;95864.09;10245438;28;2345;-48
2022/08/30 13:09:41;;;;;;;;;;;;;;;24.09;51.25;95858.53;10246244;28;2435;-47
2022/08/30 13:14:46;;;;;;;;;;;;;;;24.09;51.56;95859.31;10248174;28;2287;-52
2022/08/30 13:19:57;;;;;;;;;;;;;;;24.10;51.41;95850.28;10246283;28;2033;-49
2022/08/30 13:24:58;;;;;;;;;;;;;;;24.11;51.54;95837.84;10244902;28;2453;-51
2022/08/30 13:30:05;;;;;;;;;;;;;;;24.11;51.60;95833.31;10247498;28;2025;-52
2022/08/30 13:35:08;;;;;;;;;;;;;;;24.13;51.57;95830.41;10243249;28;2341;-49
2022/08/30 13:40:09;;;;;;;;;;;;;;;24.13;51.42;95825.09;10242520;28;2381;-48
2022/08/30 13:45:10;;;;;;;;;;;;;;;24.14;51.52;95811.56;10253798;28;2009;-52
2022/08/30 13:50:10;;;;;;;;;;;;;;;24.14;51.59;95811.56;10245093;28;2266;-52
2022/08/30 13:55:11;;;;;;;;;;;;;;;24.14;51.37;95808.91;10242469;28;2071;-47
2022/08/30 14:00:16;;;;;;;;;;;;;;;24.16;51.64;95809.41;10239940;28;2070;-49
2022/08/30 14:05:16;;;;;;;;;;;;;;;24.16;51.72;95809.41;10247198;28;2335;-50
2022/08/30 14:10:17;;;;;;;;;;;;;;;24.16;51.63;95809.41;10244543;28;2338;-49
2022/08/30 14:15:17;;;;;;;;;;;;;;;24.16;51.67;95801.44;10245309;28;2053;-50
2022/08/30 14:20:18;;;;;;;;;;;;;;;24.15;51.53;95802.50;10247999;28;2357;-49
2022/08/30 14:25:18;;;;;;;;;;;;;;;24.18;51.58;95795.84;10241568;28;2029;-50
2022/08/30 14:30:18;;;;;;;;;;;;;;;24.16;51.46;95801.44;10253118;28;2246;-49
2022/08/30 14:35:19;;;;;;;;;;;;;;;24.16;51.69;95795.34;10250960;28;2015;-50
2022/08/30 14:40:19;;;;;;;;;;;;;;;24.17;51.58;95791.66;10250547;28;2346;-51
2022/08/30 14:45:19;;;;;;;;;;;;;;;24.17;51.79;95786.34;10248435;28;2041;-49
2022/08/30 14:50:20;;;;;;;;;;;;;;;24.16;51.40;95772.31;10249375;28;2382;-48
2022/08/30 14:55:20;;;;;;;;;;;;;;;24.17;51.61;95776.50;10249462;28;2309;-49
2022/08/30 15:00:22;;;;;;;;;;;;;;;24.16;51.63;95772.31;10249741;28;2346;-51
2022/08/30 15:05:22;;;;;;;;;;;;;;;24.17;51.54;95757.22;10253292;28;2407;-51
2022/08/30 15:10:22;;;;;;;;;;;;;;;24.17;51.54;95757.22;10250350;28;2477;-49
2022/08/30 15:15:23;;;;;;;;;;;;;;;24.16;51.78;95751.13;10251188;28;2352;-50
2022/08/30 15:20:23;;;;;;;;;;;;;;;24.16;51.53;95742.38;10250669;28;2475;-53
2022/08/30 15:25:24;;;;;;;;;;;;;;;24.16;51.66;95735.22;10252047;28;2342;-50
2022/08/30 15:30:24;;;;;;;;;;;;;;;24.15;51.72;95741.59;10246738;28;2282;-50
2022/08/30 15:35:24;;;;;;;;;;;;;;;24.16;51.78;95735.22;10250593;28;2326;-51
2022/08/30 15:40:26;;;;;;;;;;;;;;;24.17;51.43;95736.78;10246901;28;2332;-49
2022/08/30 15:45:26;;;;;;;;;;;;;;;24.16;51.87;95732.59;10258791;28;2322;-48
2022/08/30 15:50:28;;;;;;;;;;;;;;;24.12;51.49;95728.97;10250995;28;2062;-49
2022/08/30 15:55:29;;;;;;;;;;;;;;;24.12;51.72;95723.66;10253063;28;2289;-50
2022/08/30 16:00:29;;;;;;;;;;;;;;;24.11;51.74;95727.38;10248695;28;2429;-47
2022/08/30 16:05:30;;;;;;;;;;;;;;;24.13;51.86;95719.91;10251720;28;2362;-52
2022/08/30 16:10:31;;;;;;;;;;;;;;;24.19;51.91;95717.97;10255569;28;2307;-49
2022/08/30 16:15:31;;;;;;;;;;;;;;;24.18;51.85;95705.78;10247717;28;2143;-49
2022/08/30 16:20:31;;;;;;;;;;;;;;;24.18;51.85;95709.22;10245791;28;2349;-51
2022/08/30 16:25:31;;;;;;;;;;;;;;;24.19;51.69;95705.50;10254670;28;2115;-51
2022/08/30 16:30:32;;;;;;;;;;;;;;;24.18;51.85;95706.59;10246411;28;2291;-50
2022/08/30 16:35:32;;;;;;;;;;;;;;;24.19;52.02;95700.19;10246912;28;2374;-49
2022/08/30 16:40:39;;;;;;;;;;;;;;;24.19;51.97;95699.44;10241776;28;2835;-47
2022/08/30 16:45:39;;;;;;;;;;;;;;;24.18;51.60;95698.63;10242779;28;2707;-50
2022/08/30 16:50:45;;;;;;;;;;;;;;;24.18;51.84;95698.63;10260883;28;1989;-49
2022/08/30 16:55:45;;;;;;;;;;;;;;;24.18;51.78;95696.00;10245836;28;2295;-48
2022/08/30 17:00:48;;;;;;;;;;;;;;;24.19;51.83;95702.09;10246983;28;2096;-50
2022/08/30 17:05:49;;;;;;;;;;;;;;;24.17;51.82;95699.72;10244313;28;2345;-53
2022/08/30 17:10:50;;;;;;;;;;;;;;;24.18;51.71;95692.56;10244059;28;2072;-50
2022/08/30 17:15:50;;;;;;;;;;;;;;;24.18;51.73;95695.19;10240427;28;2306;-50
2022/08/30 17:20:51;;;;;;;;;;;;;;;24.18;51.57;95701.28;10239591;28;2397;-46
2022/08/30 17:25:51;;;;;;;;;;;;;;;24.17;51.67;95693.66;10240594;28;2052;-50
2022/08/30 17:30:51;;;;;;;;;;;;;;;24.17;51.64;95698.94;10243356;28;2294;-50
2022/08/30 17:35:52;;;;;;;;;;;;;;;24.17;51.71;95705.00;10250109;28;2082;-52
2022/08/30 17:40:52;;;;;;;;;;;;;;;24.17;51.78;95691.00;10239479;28;2282;-46
2022/08/30 17:45:53;;;;;;;;;;;;;;;24.16;51.61;95698.16;10243589;28;1993;-48
2022/08/30 17:50:53;;;;;;;;;;;;;;;24.12;51.79;95713.06;10244314;28;2339;-50
2022/08/30 17:55:54;;;;;;;;;;;;;;;24.15;51.78;95725.72;10243537;28;2572;-50
2022/08/30 18:01:04;;;;;;;;;;;;;;;24.16;51.68;95722.00;10254131;28;2370;-50
2022/08/30 18:06:05;;;;;;;;;;;;;;;24.16;51.58;95729.94;10254927;28;2432;-46
2022/08/30 18:11:05;;;;;;;;;;;;;;;24.17;51.68;95742.09;10268178;28;2223;-52
2022/08/30 18:16:05;;;;;;;;;;;;;;;24.17;51.63;95742.09;10252933;28;2079;-51
2022/08/30 18:21:12;;;;;;;;;;;;;;;24.17;51.81;95750.03;10255668;28;2377;-48
2022/08/30 18:26:13;;;;;;;;;;;;;;;24.16;51.68;95764.38;10263639;28;1967;-47
2022/08/30 18:31:13;;;;;;;;;;;;;;;24.17;51.66;95773.09;10249274;28;2283;-51
2022/08/30 18:36:13;;;;;;;;;;;;;;;24.17;51.47;95771.22;10247442;28;2293;-51
2022/08/30 18:41:14;;;;;;;;;;;;;;;24.17;51.71;95771.22;10246591;28;2394;-48
2022/08/30 18:46:14;;;;;;;;;;;;;;;24.17;51.35;95765.91;10243694;28;2036;-47
2022/08/30 18:51:16;;;;;;;;;;;;;;;24.16;51.44;95769.66;10242577;28;2373;-50
2022/08/30 18:56:16;;;;;;;;;;;;;;;24.13;51.54;95775.53;10245995;28;2401;-48
2022/08/30 19:01:16;;;;;;;;;;;;;;;24.12;51.27;95768.69;10246965;28;2279;-48
2022/08/30 19:06:17;;;;;;;;;;;;;;;24.09;50.78;95769.25;10245170;28;2070;-50
2022/08/30 19:11:17;;;;;;;;;;;;;;;24.06;50.53;95767.22;10251266;28;2359;-51
2022/08/30 19:16:17;;;;;;;;;;;;;;;24.04;50.29;95763.28;10259639;28;2068;-46
2022/08/30 19:21:19;;;;;;;;;;;;;;;24.03;50.22;95770.44;10256316;28;2477;-47
2022/08/30 19:26:20;;;;;;;;;;;;;;;24.02;49.72;95760.91;10260438;28;2144;-46
2022/08/30 19:31:20;;;;;;;;;;;;;;;24.01;49.90;95763.84;10255324;28;2020;-49
2022/08/30 19:36:20;;;;;;;;;;;;;;;24.01;49.87;95769.13;10258943;28;2408;-47
2022/08/30 19:41:20;;;;;;;;;;;;;;;24.02;50.37;95774.16;10252403;28;2296;-49
2022/08/30 19:46:21;;;;;;;;;;;;;;;24.06;50.23;95783.09;10254191;28;2487;-47
2022/08/30 19:51:21;;;;;;;;;;;;;;;24.03;50.28;95778.38;10252223;28;2146;-50
2022/08/30 19:56:22;;;;;;;;;;;;;;;23.99;49.60;95779.22;10259432;28;2411;-48
2022/08/30 20:01:22;;;;;;;;;;;;;;;23.96;49.49;95779.84;10252824;28;2467;-48
2022/08/30 20:06:22;;;;;;;;;;;;;;;23.98;50.06;95780.31;10251762;28;2048;-47
2022/08/30 20:11:23;;;;;;;;;;;;;;;24.02;50.59;95781.31;10256144;28;2314;-47
2022/08/30 20:16:24;;;;;;;;;;;;;;;23.86;49.15;95772.88;10252794;28;2363;-50
2022/08/30 20:21:24;;;;;;;;;;;;;;;23.67;48.41;95769.53;10250352;28;2339;-49
2022/08/30 20:26:24;;;;;;;;;;;;;;;23.61;48.63;95769.91;10250327;28;2074;-50
2022/08/30 20:31:25;;;;;;;;;;;;;;;23.69;48.60;95763.94;10247714;28;2279;-49
2022/08/30 20:36:25;;;;;;;;;;;;;;;23.72;48.57;95752.78;10249854;28;2349;-47
2022/08/30 20:41:28;;;;;;;;;;;;;;;23.74;48.58;95751.38;10251207;28;2329;-49
2022/08/30 20:46:28;;;;;;;;;;;;;;;23.75;48.49;95763.56;10248428;28;2363;-50
2022/08/30 20:51:28;;;;;;;;;;;;;;;23.77;48.48;95769.34;10249153;28;2334;-51
2022/08/30 20:56:30;;;;;;;;;;;;;;;23.78;48.57;95775.41;10245047;28;2318;-51
2022/08/30 21:01:31;;;;;;;;;;;;;;;23.77;48.63;95760.59;10246162;28;2445;-48
2022/08/30 21:06:36;;;;;;;;;;;;;;;23.79;48.84;95767.19;10248130;28;2384;-51
2022/08/30 21:11:36;;;;;;;;;;;;;;;23.78;48.96;95762.94;10240593;28;2333;-47
2022/08/30 21:16:36;;;;;;;;;;;;;;;23.75;48.69;95766.19;10242282;28;2143;-50
2022/08/30 21:21:37;;;;;;;;;;;;;;;23.75;48.94;95768.84;10242089;28;2353;-47
2022/08/30 21:26:37;;;;;;;;;;;;;;;23.89;49.34;95767.00;10252268;28;2352;-47
2022/08/30 21:31:38;;;;;;;;;;;;;;;23.94;49.27;95764.25;10225226;28;1973;-48
2022/08/30 21:36:44;;;;;;;;;;;;;;;23.98;49.61;95761.78;10239291;28;2280;-48
2022/08/30 21:41:44;;;;;;;;;;;;;;;24.00;49.48;95764.94;10240813;28;2368;-48
2022/08/30 21:46:45;;;;;;;;;;;;;;;24.02;49.57;95768.88;10238698;28;2282;-45
2022/08/30 21:51:46;;;;;;;;;;;;;;;24.02;49.80;95768.88;10240650;28;2466;-47
2022/08/30 21:56:47;;;;;;;;;;;;;;;24.03;49.78;95767.78;10246147;28;2012;-47
2022/08/30 22:01:47;;;;;;;;;;;;;;;24.04;49.97;95772.03;10251032;28;2376;-48
2022/08/30 22:06:49;;;;;;;;;;;;;;;24.06;49.85;95777.81;10243973;28;1994;-48
2022/08/30 22:11:53;;;;;;;;;;;;;;;24.07;49.84;95779.38;10239507;28;2333;-48
2022/08/30 22:16:53;;;;;;;;;;;;;;;24.09;49.89;95779.09;10237109;28;2399;-47
2022/08/30 22:21:54;;;;;;;;;;;;;;;24.08;50.24;95775.66;10238985;28;2362;-47
2022/08/30 22:26:54;;;;;;;;;;;;;;;24.09;50.21;95771.16;10242995;28;2093;-48
2022/08/30 22:31:54;;;;;;;;;;;;;;;24.10;50.28;95778.00;10241676;28;2410;-47
2022/08/30 22:36:55;;;;;;;;;;;;;;;24.11;50.50;95772.41;10240387;28;2374;-47
2022/08/30 22:41:55;;;;;;;;;;;;;;;24.13;50.37;95786.13;10238497;28;2360;-50
2022/08/30 22:46:55;;;;;;;;;;;;;;;24.14;50.42;95782.41;10245100;28;2339;-51
2022/08/30 22:51:55;;;;;;;;;;;;;;;24.13;50.55;95778.19;10252899;28;2247;-46
2022/08/30 22:56:56;;;;;;;;;;;;;;;24.14;50.57;95779.78;10246263;28;2463;-49
2022/08/30 23:01:56;;;;;;;;;;;;;;;24.16;50.75;95776.81;10251212;28;2328;-49
2022/08/30 23:06:58;;;;;;;;;;;;;;;24.16;50.82;95782.91;10249929;28;2296;-46
2022/08/30 23:11:59;;;;;;;;;;;;;;;24.16;50.66;95771.53;10247884;28;1977;-50
2022/08/30 23:16:59;;;;;;;;;;;;;;;24.17;51.03;95770.47;10247102;28;2339;-48
2022/08/30 23:21:59;;;;;;;;;;;;;;;24.18;50.74;95764.84;10249288;28;2447;-47
